Lovely Linda — WCV8236 — position and weather

sailwx.info

Track history (hours):
 
Tides and Currents Weather Stations Pressure Air Temp Water Temp Dewpoint Dewpoint Depression Visibility Wind Speed Wind Dir Waves Ship Positions

Lovely Linda

Owner: LUGO, PETER A, CAPE CORAL, FL. More information available from US FCC via Universal Licensing System and Coast Guard Vessel Documentation Center.

Last reported at 2018-Feb-25 00:23 UTC. Time now 2018-Feb-25 11:30 UTC.
Position N 34°25' W 119°56'.

Length 32 m.

Type: Passenger vessel. MMSI: 367077090.

Date/timePositionNaut miles runAvg speedWind from/ knotsBaromVisibWave heightAir tempDewpointWater temp
2018-Feb-25 00:23N 34°25' W 119°56'715.6
2018-Feb-24 23:55N 34°23' W 120°04'2 5.6
2018-Feb-24 23:28N 34°23' W 120°07'610.5
2018-Feb-24 22:56N 34°22' W 120°14'0 0.3
2018-Feb-24 22:29N 34°21' W 120°14'3 1.1
2018-Feb-24 19:25N 34°22' W 120°10'0 0.0
2018-Feb-24 18:46N 34°22' W 120°10'0 0.0
2018-Feb-24 17:55N 34°22' W 120°10'0 0.0
2018-Feb-24 17:13N 34°22' W 120°10'0 0.0
2018-Feb-24 16:59N 34°22' W 120°10'0 0.0
2018-Feb-24 16:29N 34°22' W 120°10'611.4
2018-Feb-24 15:58N 34°21' W 120°17'2 4.6
2018-Feb-24 15:29N 34°22' W 120°14'3 7.1
2018-Feb-24 15:00N 34°23' W 120°10'3 5.1
2018-Feb-24 14:28N 34°23' W 120°07'0 0.0
2018-Feb-24 13:58N 34°23' W 120°07'0 0.0
2018-Feb-24 13:25N 34°23' W 120°07'0 0.0
2018-Feb-24 12:58N 34°23' W 120°07'0 0.1
2018-Feb-24 12:28N 34°23' W 120°07'0 0.1
2018-Feb-24 11:58N 34°23' W 120°07'0 0.0
2018-Feb-24 11:28N 34°23' W 120°07'0 0.0
2018-Feb-24 10:58N 34°23' W 120°07'0 0.0
2018-Feb-24 10:28N 34°23' W 120°07'0 0.0
2018-Feb-24 09:58N 34°23' W 120°07'0 0.0
2018-Feb-24 09:30N 34°23' W 120°07'0 0.0
2018-Feb-24 08:58N 34°23' W 120°07'0 0.0
2018-Feb-24 08:28N 34°23' W 120°07'0 0.0
2018-Feb-24 07:58N 34°23' W 120°07'0 0.0
2018-Feb-24 07:28N 34°23' W 120°07'0 0.0
2018-Feb-24 06:58N 34°23' W 120°07'0 0.0
2018-Feb-24 06:28N 34°23' W 120°07'0 0.0
2018-Feb-24 06:00N 34°23' W 120°07'0 0.0
2018-Feb-24 05:30N 34°23' W 120°07'0 0.1
2018-Feb-24 04:55N 34°23' W 120°07'0 0.0
2018-Feb-24 04:30N 34°23' W 120°07'0 0.0
2018-Feb-24 04:00N 34°23' W 120°07'0 0.0
2018-Feb-24 03:30N 34°23' W 120°07'0 0.0
2018-Feb-24 03:00N 34°23' W 120°07'0 0.0
2018-Feb-24 02:30N 34°23' W 120°07'0 0.0
2018-Feb-24 02:00N 34°23' W 120°07'0 0.0
2018-Feb-24 01:30N 34°23' W 120°07'0 0.6
2018-Feb-24 01:00N 34°23' W 120°07'713.0
2018-Feb-24 00:30N 34°21' W 120°15'2 3.2
2018-Feb-24 00:00N 34°21' W 120°17'0 0.2
2018-Feb-23 23:30N 34°21' W 120°17'0 0.0
2018-Feb-23 23:00N 34°21' W 120°17'712.4
2018-Feb-23 22:27N 34°21' W 120°09'914.2
2018-Feb-23 21:50N 34°20' W 119°58'614.1
2018-Feb-23 21:23N 34°19' W 119°50'1713.4
2018-Feb-23 20:06N 34°14' W 119°30'213.2
2018-Feb-23 19:57N 34°13' W 119°28'713.1
2018-Feb-23 19:23N 34°10' W 119°20'512.6
2018-Feb-23 19:00N 34°09' W 119°15'2 2.8
2018-Feb-23 18:17N 34°09' W 119°12'0 0.0
2018-Feb-23 17:56N 34°09' W 119°12'0 0.0
2018-Feb-23 17:11N 34°09' W 119°12'0 0.0
2018-Feb-23 16:59N 34°09' W 119°12'0 0.0
2018-Feb-23 16:29N 34°09' W 119°12'0 0.0
2018-Feb-23 15:56N 34°09' W 119°12'0 0.0
2018-Feb-23 15:29N 34°09' W 119°12'0 0.0
2018-Feb-23 14:59N 34°09' W 119°12'0 0.0
2018-Feb-23 14:29N 34°09' W 119°12'0 0.0
2018-Feb-23 13:59N 34°09' W 119°12'0 0.0
2018-Feb-23 13:29N 34°09' W 119°12'0 0.0
2018-Feb-23 12:59N 34°09' W 119°12'0 0.0
2018-Feb-23 12:23N 34°09' W 119°12'0 0.0
2018-Feb-23 11:56N 34°09' W 119°12'0 0.0
2018-Feb-23 11:29N 34°09' W 119°12'0 0.0
2018-Feb-23 10:59N 34°09' W 119°12'0 0.0
2018-Feb-23 10:29N 34°09' W 119°12'0 0.0
2018-Feb-23 09:59N 34°09' W 119°12'0 0.0
2018-Feb-23 09:29N 34°09' W 119°12'0 0.0
2018-Feb-23 08:59N 34°09' W 119°12'0 0.0
2018-Feb-23 08:29N 34°09' W 119°12'0 0.0
2018-Feb-23 07:59N 34°09' W 119°12'0 0.0
2018-Feb-23 07:26N 34°09' W 119°12'0 0.0
2018-Feb-23 06:59N 34°09' W 119°12'0 0.0
2018-Feb-23 06:29N 34°09' W 119°12'0 0.0
2018-Feb-23 05:59N 34°09' W 119°12'0 0.0
2018-Feb-23 05:29N 34°09' W 119°12'0 0.0
2018-Feb-23 04:50N 34°09' W 119°12'0 0.0
2018-Feb-23 04:29N 34°09' W 119°12'0 0.0
2018-Feb-23 03:56N 34°09' W 119°12'0 0.0
2018-Feb-23 03:23N 34°09' W 119°12'0 0.0
2018-Feb-23 02:59N 34°09' W 119°12'0 0.0
2018-Feb-23 02:29N 34°09' W 119°12'0 0.0
2018-Feb-23 01:47N 34°09' W 119°12'0 0.1
2018-Feb-23 01:29N 34°09' W 119°12'612.8
2018-Feb-23 01:00N 34°14' W 119°17'1 0.6
2018-Feb-22 22:49N 34°14' W 119°16'0 0.0
2018-Feb-22 22:25N 34°14' W 119°16'0 0.0
2018-Feb-22 21:58N 34°14' W 119°16'0 0.1
2018-Feb-22 21:30N 34°14' W 119°16'1815.3
2018-Feb-22 20:18N 34°19' W 119°37'616.8
2018-Feb-22 19:55N 34°21' W 119°45'716.5
2018-Feb-22 19:30N 34°22' W 119°53'916.4
2018-Feb-22 18:58N 34°23' W 120°03'3 6.5
2018-Feb-22 18:29N 34°23' W 120°07'2 4.1
2018-Feb-22 17:57N 34°23' W 120°10'1214.8
2018-Feb-22 17:10N 34°25' W 119°56'1 0.3
2018-Feb-22 14:32N 34°26' W 119°55'0 0.0
2018-Feb-22 14:20N 34°26' W 119°55'0 0.0
2018-Feb-22 06:17N 34°26' W 119°55'0 0.0
2018-Feb-22 04:26N 34°26' W 119°55'0 0.0
2018-Feb-21 21:23N 34°26' W 119°55'0 0.0
2018-Feb-21 20:07N 34°26' W 119°55'412.8
2018-Feb-21 19:48N 34°24' W 119°60'516.1
2018-Feb-21 19:29N 34°24' W 120°06'912.1
2018-Feb-21 18:43N 34°21' W 120°17'1 6.3
2018-Feb-21 18:30N 34°21' W 120°15'610.7
2018-Feb-21 17:55N 34°23' W 120°08'1 1.6
2018-Feb-21 17:30N 34°23' W 120°07'0 0.4
2018-Feb-21 16:58N 34°23' W 120°07'0 0.0
2018-Feb-21 16:28N 34°23' W 120°07'0 1.0
2018-Feb-21 15:59N 34°23' W 120°06'916.4
2018-Feb-21 15:27N 34°25' W 119°56'1 0.1
2018-Feb-21 02:33N 34°26' W 119°55'0 0.5
2018-Feb-21 02:05N 34°26' W 119°55'0 4.3
2018-Feb-21 02:00N 34°25' W 119°55'713.7
2018-Feb-21 01:29N 34°23' W 120°04'5 8.8
2018-Feb-21 00:53N 34°23' W 120°10'611.9
2018-Feb-21 00:24N 34°21' W 120°17'6 8.5
2018-Feb-20 23:42N 34°22' W 120°10'1 4.0
2018-Feb-20 23:27N 34°23' W 120°09'1 2.2
2018-Feb-20 22:58N 34°22' W 120°10'0 0.0
2018-Feb-20 22:29N 34°22' W 120°10'0 0.1
2018-Feb-20 22:00N 34°22' W 120°10'0 0.0
2018-Feb-20 21:29N 34°23' W 120°10'2 3.8
2018-Feb-20 21:00N 34°23' W 120°08'2 3.2
2018-Feb-20 20:23N 34°23' W 120°10'613.0
2018-Feb-20 19:57N 34°21' W 120°17'610.6
2018-Feb-20 19:23N 34°22' W 120°10'0 0.0
2018-Feb-20 18:59N 34°22' W 120°10'0 0.0
2018-Feb-20 18:29N 34°22' W 120°10'6 9.7
2018-Feb-20 17:52N 34°21' W 120°17'3 8.0
2018-Feb-20 17:30N 34°22' W 120°13'3 5.6
2018-Feb-20 17:00N 34°23' W 120°10'2 4.7
2018-Feb-20 16:29N 34°23' W 120°07'10 7.4
2018-Feb-20 15:08N 34°26' W 119°55'0 0.0
2018-Feb-20 14:41N 34°26' W 119°55'312.7
2018-Feb-20 14:29N 34°24' W 119°57'813.7
2018-Feb-20 13:54N 34°23' W 120°07'0 0.0
2018-Feb-20 13:29N 34°23' W 120°07'0 0.0
2018-Feb-20 12:59N 34°23' W 120°07'0 0.0
2018-Feb-20 12:28N 34°23' W 120°07'0 0.0
2018-Feb-20 11:49N 34°23' W 120°07'0 0.0
2018-Feb-20 11:28N 34°23' W 120°07'0 0.1
2018-Feb-20 10:58N 34°23' W 120°07'0 0.0
2018-Feb-20 10:25N 34°23' W 120°07'0 0.0
2018-Feb-20 09:58N 34°23' W 120°07'0 0.1
2018-Feb-20 09:29N 34°23' W 120°07'0 0.0
2018-Feb-20 08:59N 34°23' W 120°07'0 0.0
2018-Feb-20 08:29N 34°23' W 120°07'0 0.0
2018-Feb-20 08:00N 34°23' W 120°07'0 0.0
2018-Feb-20 07:30N 34°23' W 120°07'0 0.0
2018-Feb-20 06:59N 34°23' W 120°07'0 0.0
2018-Feb-20 06:29N 34°23' W 120°07'0 0.0
2018-Feb-20 05:56N 34°23' W 120°07'0 0.0
2018-Feb-20 05:30N 34°23' W 120°07'0 0.0
2018-Feb-20 05:00N 34°23' W 120°07'0 0.0
2018-Feb-20 04:30N 34°23' W 120°07'0 0.1
2018-Feb-20 04:00N 34°23' W 120°07'0 0.0
2018-Feb-20 03:28N 34°23' W 120°07'0 0.0
2018-Feb-20 03:00N 34°23' W 120°07'0 0.0
2018-Feb-20 02:30N 34°23' W 120°07'0 0.0
2018-Feb-20 02:00N 34°23' W 120°07'0 0.0
2018-Feb-20 01:29N 34°23' W 120°07'0 0.0
2018-Feb-20 01:00N 34°23' W 120°07'0 0.0
2018-Feb-20 00:30N 34°23' W 120°07'0 0.0
2018-Feb-20 00:00N 34°23' W 120°07'0 0.4
2018-Feb-19 23:21N 34°23' W 120°07'0 0.0
2018-Feb-19 22:58N 34°23' W 120°07'1411.3
2018-Feb-19 21:44N 34°18' W 119°52'411.4
2018-Feb-19 21:24N 34°16' W 119°48'1411.2
2018-Feb-19 20:07N 34°13' W 119°31'311.0
2018-Feb-19 19:49N 34°12' W 119°27'411.1
2018-Feb-19 19:27N 34°11' W 119°22'510.6
2018-Feb-19 19:00N 34°09' W 119°17'4 6.2
2018-Feb-19 18:23N 34°09' W 119°12'0 0.0
2018-Feb-19 17:59N 34°09' W 119°12'0 0.0
2018-Feb-19 17:29N 34°09' W 119°12'0 0.0
2018-Feb-19 16:59N 34°09' W 119°12'0 0.0
2018-Feb-19 16:14N 34°09' W 119°12'0 0.0
2018-Feb-19 15:59N 34°09' W 119°12'0 0.0
2018-Feb-19 15:29N 34°09' W 119°12'0 0.0
2018-Feb-19 14:59N 34°09' W 119°12'0 0.0
2018-Feb-19 14:29N 34°09' W 119°12'0 0.0
2018-Feb-19 13:35N 34°09' W 119°12'0 0.0
2018-Feb-19 13:29N 34°09' W 119°12'0 0.0
2018-Feb-19 12:59N 34°09' W 119°12'0 0.0
2018-Feb-19 12:29N 34°09' W 119°12'0 0.0
2018-Feb-19 11:51N 34°09' W 119°12'0 0.0
2018-Feb-19 11:27N 34°09' W 119°12'0 0.0
2018-Feb-19 11:00N 34°09' W 119°12'0 0.0
2018-Feb-19 10:30N 34°09' W 119°12'0 0.0
2018-Feb-19 09:57N 34°09' W 119°12'0 0.0
2018-Feb-19 09:30N 34°09' W 119°12'0 0.0
2018-Feb-19 09:00N 34°09' W 119°12'0 0.0
2018-Feb-19 08:24N 34°09' W 119°12'0 0.0
2018-Feb-19 07:57N 34°09' W 119°12'0 0.0
2018-Feb-19 07:30N 34°09' W 119°12'0 0.0
2018-Feb-19 06:33N 34°09' W 119°12'0 0.1
2018-Feb-19 06:27N 34°09' W 119°12'0 0.0
2018-Feb-19 06:00N 34°09' W 119°12'0 0.0
2018-Feb-19 05:29N 34°09' W 119°12'0 0.0
2018-Feb-19 04:47N 34°09' W 119°12'0 0.0
2018-Feb-19 04:15N 34°09' W 119°12'0 0.0
2018-Feb-19 03:57N 34°09' W 119°12'0 0.0
2018-Feb-19 03:30N 34°09' W 119°12'0 0.0
2018-Feb-19 02:54N 34°09' W 119°12'0 0.0
2018-Feb-19 02:30N 34°09' W 119°12'0 0.0
2018-Feb-19 01:57N 34°09' W 119°12'0 0.0
2018-Feb-19 01:27N 34°09' W 119°12'0 0.0
2018-Feb-19 00:51N 34°09' W 119°12'0 0.0
2018-Feb-19 00:27N 34°09' W 119°12'0 0.0
2018-Feb-18 23:57N 34°09' W 119°12'0 0.0
2018-Feb-18 23:27N 34°09' W 119°12'0 0.0
2018-Feb-18 23:00N 34°09' W 119°12'0 0.0
2018-Feb-18 22:27N 34°09' W 119°12'0 0.0
2018-Feb-18 22:00N 34°09' W 119°12'0 0.0
2018-Feb-18 21:30N 34°09' W 119°12'1 1.2
2018-Feb-18 20:59N 34°09' W 119°13'714.2
2018-Feb-18 20:28N 34°11' W 119°21'714.5
2018-Feb-18 20:00N 34°13' W 119°29'814.5
2018-Feb-18 19:28N 34°14' W 119°38'1014.5
2018-Feb-18 18:47N 34°17' W 119°50'414.6
2018-Feb-18 18:30N 34°18' W 119°54'814.3
2018-Feb-18 17:58N 34°20' W 120°03'611.8
2018-Feb-18 17:27N 34°23' W 120°10'0 0.0
2018-Feb-18 17:00N 34°23' W 120°10'3 4.0
2018-Feb-18 16:23N 34°23' W 120°07'0 0.0
2018-Feb-18 15:59N 34°23' W 120°07'612.3
2018-Feb-18 15:30N 34°24' W 120°00'4 8.3
2018-Feb-18 14:59N 34°26' W 119°55'0 0.0
2018-Feb-18 11:04N 34°26' W 119°55'0 0.0
2018-Feb-18 10:58N 34°26' W 119°55'0 0.0
2018-Feb-18 10:28N 34°26' W 119°55'0 0.0
2018-Feb-18 09:52N 34°26' W 119°55'0 0.0
2018-Feb-18 09:28N 34°26' W 119°55'0 0.0
2018-Feb-18 06:46N 34°26' W 119°55'0 0.0
2018-Feb-18 06:19N 34°26' W 119°55'0 0.0
2018-Feb-18 05:52N 34°26' W 119°55'0 0.0
2018-Feb-18 05:22N 34°26' W 119°55'0 0.0
2018-Feb-18 02:19N 34°26' W 119°55'3 9.5
2018-Feb-18 01:57N 34°24' W 119°59'713.1
2018-Feb-18 01:26N 34°23' W 120°07'3 5.8
2018-Feb-18 01:00N 34°23' W 120°10'611.4
2018-Feb-18 00:30N 34°21' W 120°17'6 9.3
2018-Feb-17 23:52N 34°22' W 120°10'0 0.0
2018-Feb-17 23:16N 34°22' W 120°10'0 0.0
2018-Feb-17 22:40N 34°22' W 120°10'0 0.0
2018-Feb-17 22:28N 34°22' W 120°10'0 0.0
2018-Feb-17 21:49N 34°22' W 120°10'0 0.0
2018-Feb-17 21:19N 34°22' W 120°10'0 0.0
2018-Feb-17 20:40N 34°22' W 120°10'0 0.0
2018-Feb-17 20:10N 34°22' W 120°10'0 0.0
2018-Feb-17 19:31N 34°22' W 120°10'0 0.0
2018-Feb-17 19:25N 34°22' W 120°10'0 0.0
2018-Feb-17 18:37N 34°22' W 120°10'0 0.0
2018-Feb-17 18:19N 34°22' W 120°10'0 0.0
2018-Feb-17 17:43N 34°22' W 120°10'0 0.0
2018-Feb-17 17:22N 34°22' W 120°10'0 0.6
2018-Feb-17 16:58N 34°23' W 120°10'5 8.7
2018-Feb-17 16:26N 34°24' W 120°05'716.1
2018-Feb-17 16:00N 34°24' W 119°56'2 2.4
2018-Feb-17 15:21N 34°26' W 119°55'0 0.5
2018-Feb-17 14:54N 34°26' W 119°55'0 0.2
2018-Feb-17 13:43N 34°26' W 119°55'0 0.0
2018-Feb-17 10:40N 34°26' W 119°55'0 0.0
2018-Feb-17 07:46N 34°26' W 119°55'0 0.0
2018-Feb-17 07:25N 34°26' W 119°55'0 0.0
2018-Feb-17 06:55N 34°26' W 119°55'0 0.0
2018-Feb-16 23:43N 34°26' W 119°55'0 0.0
2018-Feb-16 23:13N 34°26' W 119°55'0 0.0
2018-Feb-16 22:58N 34°26' W 119°55'0 0.0
2018-Feb-16 22:28N 34°26' W 119°55'0 0.0
2018-Feb-16 17:37N 34°26' W 119°55'0 0.0
2018-Feb-16 17:25N 34°26' W 119°55'0 0.0
2018-Feb-16 14:43N 34°26' W 119°55'0 0.0
2018-Feb-16 12:22N 34°26' W 119°55'0 0.0
2018-Feb-16 11:19N 34°26' W 119°55'0 0.0
2018-Feb-16 09:55N 34°26' W 119°55'0 0.0
2018-Feb-16 09:01N 34°26' W 119°55'0 0.0
2018-Feb-16 08:34N 34°26' W 119°55'0 0.0
2018-Feb-16 08:22N 34°26' W 119°55'0 0.0
2018-Feb-16 06:52N 34°26' W 119°55'0 0.0
2018-Feb-16 03:46N 34°26' W 119°55'0 0.0
2018-Feb-16 03:10N 34°26' W 119°55'0 0.0
2018-Feb-16 02:49N 34°26' W 119°55'0 0.5
2018-Feb-16 02:22N 34°26' W 119°55'510.8
2018-Feb-16 01:57N 34°24' W 120°00'6 9.7
2018-Feb-16 01:22N 34°23' W 120°07'510.0
2018-Feb-16 00:50N 34°22' W 120°13'3 7.4
2018-Feb-16 00:26N 34°21' W 120°17'612.8
2018-Feb-15 23:59N 34°22' W 120°10'0 0.0
2018-Feb-15 23:11N 34°22' W 120°10'0 0.0
2018-Feb-15 22:53N 34°22' W 120°10'0 0.0
2018-Feb-15 22:25N 34°22' W 120°10'0 0.0
2018-Feb-15 21:55N 34°22' W 120°10'0 0.0
2018-Feb-15 21:13N 34°22' W 120°10'0 0.0
2018-Feb-15 20:52N 34°22' W 120°10'0 0.0
2018-Feb-15 20:22N 34°22' W 120°10'0 0.0
2018-Feb-15 19:49N 34°22' W 120°10'0 0.0
2018-Feb-15 19:16N 34°22' W 120°10'0 0.0
2018-Feb-15 18:52N 34°22' W 120°10'0 0.0
2018-Feb-15 18:28N 34°22' W 120°10'0 0.0
2018-Feb-15 17:58N 34°22' W 120°10'0 0.5
2018-Feb-15 17:30N 34°23' W 120°10'814.3
2018-Feb-15 16:56N 34°24' W 119°60'4 7.1
2018-Feb-15 16:21N 34°26' W 119°55'0 0.1
2018-Feb-15 12:26N 34°26' W 119°55'0 0.0
2018-Feb-15 10:02N 34°26' W 119°55'0 0.0
2018-Feb-15 09:47N 34°26' W 119°55'0 0.0
2018-Feb-15 00:40N 34°26' W 119°55'  
Track history (hours):
 
Tides and Currents Weather Stations Pressure Air Temp Water Temp Dewpoint Dewpoint Depression Visibility Wind Speed Wind Dir Waves Ship Positions

Lovely Linda

Owner: LUGO, PETER A, CAPE CORAL, FL. More information available from US FCC via Universal Licensing System and Coast Guard Vessel Documentation Center.

Last reported at 2018-Feb-25 00:23 UTC. Time now 2018-Feb-25 11:30 UTC.
Position N 34°25' W 119°56'.

Length 32 m.

Type: Passenger vessel. MMSI: 367077090.

Date/timePositionNaut miles runAvg speedWind from/ knotsBaromVisibWave heightAir tempDewpointWater temp
2018-Feb-25 00:23N 34°25' W 119°56'715.6
2018-Feb-24 23:55N 34°23' W 120°04'2 5.6
2018-Feb-24 23:28N 34°23' W 120°07'610.5
2018-Feb-24 22:56N 34°22' W 120°14'0 0.3
2018-Feb-24 22:29N 34°21' W 120°14'3 1.1
2018-Feb-24 19:25N 34°22' W 120°10'0 0.0
2018-Feb-24 18:46N 34°22' W 120°10'0 0.0
2018-Feb-24 17:55N 34°22' W 120°10'0 0.0
2018-Feb-24 17:13N 34°22' W 120°10'0 0.0
2018-Feb-24 16:59N 34°22' W 120°10'0 0.0
2018-Feb-24 16:29N 34°22' W 120°10'611.4
2018-Feb-24 15:58N 34°21' W 120°17'2 4.6
2018-Feb-24 15:29N 34°22' W 120°14'3 7.1
2018-Feb-24 15:00N 34°23' W 120°10'3 5.1
2018-Feb-24 14:28N 34°23' W 120°07'0 0.0
2018-Feb-24 13:58N 34°23' W 120°07'0 0.0
2018-Feb-24 13:25N 34°23' W 120°07'0 0.0
2018-Feb-24 12:58N 34°23' W 120°07'0 0.1
2018-Feb-24 12:28N 34°23' W 120°07'0 0.1
2018-Feb-24 11:58N 34°23' W 120°07'0 0.0
2018-Feb-24 11:28N 34°23' W 120°07'0 0.0
2018-Feb-24 10:58N 34°23' W 120°07'0 0.0
2018-Feb-24 10:28N 34°23' W 120°07'0 0.0
2018-Feb-24 09:58N 34°23' W 120°07'0 0.0
2018-Feb-24 09:30N 34°23' W 120°07'0 0.0
2018-Feb-24 08:58N 34°23' W 120°07'0 0.0
2018-Feb-24 08:28N 34°23' W 120°07'0 0.0
2018-Feb-24 07:58N 34°23' W 120°07'0 0.0
2018-Feb-24 07:28N 34°23' W 120°07'0 0.0
2018-Feb-24 06:58N 34°23' W 120°07'0 0.0
2018-Feb-24 06:28N 34°23' W 120°07'0 0.0
2018-Feb-24 06:00N 34°23' W 120°07'0 0.0
2018-Feb-24 05:30N 34°23' W 120°07'0 0.1
2018-Feb-24 04:55N 34°23' W 120°07'0 0.0
2018-Feb-24 04:30N 34°23' W 120°07'0 0.0
2018-Feb-24 04:00N 34°23' W 120°07'0 0.0
2018-Feb-24 03:30N 34°23' W 120°07'0 0.0
2018-Feb-24 03:00N 34°23' W 120°07'0 0.0
2018-Feb-24 02:30N 34°23' W 120°07'0 0.0
2018-Feb-24 02:00N 34°23' W 120°07'0 0.0
2018-Feb-24 01:30N 34°23' W 120°07'0 0.6
2018-Feb-24 01:00N 34°23' W 120°07'713.0
2018-Feb-24 00:30N 34°21' W 120°15'2 3.2
2018-Feb-24 00:00N 34°21' W 120°17'0 0.2
2018-Feb-23 23:30N 34°21' W 120°17'0 0.0
2018-Feb-23 23:00N 34°21' W 120°17'712.4
2018-Feb-23 22:27N 34°21' W 120°09'914.2
2018-Feb-23 21:50N 34°20' W 119°58'614.1
2018-Feb-23 21:23N 34°19' W 119°50'1713.4
2018-Feb-23 20:06N 34°14' W 119°30'213.2
2018-Feb-23 19:57N 34°13' W 119°28'713.1
2018-Feb-23 19:23N 34°10' W 119°20'512.6
2018-Feb-23 19:00N 34°09' W 119°15'2 2.8
2018-Feb-23 18:17N 34°09' W 119°12'0 0.0
2018-Feb-23 17:56N 34°09' W 119°12'0 0.0
2018-Feb-23 17:11N 34°09' W 119°12'0 0.0
2018-Feb-23 16:59N 34°09' W 119°12'0 0.0
2018-Feb-23 16:29N 34°09' W 119°12'0 0.0
2018-Feb-23 15:56N 34°09' W 119°12'0 0.0
2018-Feb-23 15:29N 34°09' W 119°12'0 0.0
2018-Feb-23 14:59N 34°09' W 119°12'0 0.0
2018-Feb-23 14:29N 34°09' W 119°12'0 0.0
2018-Feb-23 13:59N 34°09' W 119°12'0 0.0
2018-Feb-23 13:29N 34°09' W 119°12'0 0.0
2018-Feb-23 12:59N 34°09' W 119°12'0 0.0
2018-Feb-23 12:23N 34°09' W 119°12'0 0.0
2018-Feb-23 11:56N 34°09' W 119°12'0 0.0
2018-Feb-23 11:29N 34°09' W 119°12'0 0.0
2018-Feb-23 10:59N 34°09' W 119°12'0 0.0
2018-Feb-23 10:29N 34°09' W 119°12'0 0.0
2018-Feb-23 09:59N 34°09' W 119°12'0 0.0
2018-Feb-23 09:29N 34°09' W 119°12'0 0.0
2018-Feb-23 08:59N 34°09' W 119°12'0 0.0
2018-Feb-23 08:29N 34°09' W 119°12'0 0.0
2018-Feb-23 07:59N 34°09' W 119°12'0 0.0
2018-Feb-23 07:26N 34°09' W 119°12'0 0.0
2018-Feb-23 06:59N 34°09' W 119°12'0 0.0
2018-Feb-23 06:29N 34°09' W 119°12'0 0.0
2018-Feb-23 05:59N 34°09' W 119°12'0 0.0
2018-Feb-23 05:29N 34°09' W 119°12'0 0.0
2018-Feb-23 04:50N 34°09' W 119°12'0 0.0
2018-Feb-23 04:29N 34°09' W 119°12'0 0.0
2018-Feb-23 03:56N 34°09' W 119°12'0 0.0
2018-Feb-23 03:23N 34°09' W 119°12'0 0.0
2018-Feb-23 02:59N 34°09' W 119°12'0 0.0
2018-Feb-23 02:29N 34°09' W 119°12'0 0.0
2018-Feb-23 01:47N 34°09' W 119°12'0 0.1
2018-Feb-23 01:29N 34°09' W 119°12'612.8
2018-Feb-23 01:00N 34°14' W 119°17'1 0.6
2018-Feb-22 22:49N 34°14' W 119°16'0 0.0
2018-Feb-22 22:25N 34°14' W 119°16'0 0.0
2018-Feb-22 21:58N 34°14' W 119°16'0 0.1
2018-Feb-22 21:30N 34°14' W 119°16'1815.3
2018-Feb-22 20:18N 34°19' W 119°37'616.8
2018-Feb-22 19:55N 34°21' W 119°45'716.5
2018-Feb-22 19:30N 34°22' W 119°53'916.4
2018-Feb-22 18:58N 34°23' W 120°03'3 6.5
2018-Feb-22 18:29N 34°23' W 120°07'2 4.1
2018-Feb-22 17:57N 34°23' W 120°10'1214.8
2018-Feb-22 17:10N 34°25' W 119°56'1 0.3
2018-Feb-22 14:32N 34°26' W 119°55'0 0.0
2018-Feb-22 14:20N 34°26' W 119°55'0 0.0
2018-Feb-22 06:17N 34°26' W 119°55'0 0.0
2018-Feb-22 04:26N 34°26' W 119°55'0 0.0
2018-Feb-21 21:23N 34°26' W 119°55'0 0.0
2018-Feb-21 20:07N 34°26' W 119°55'412.8
2018-Feb-21 19:48N 34°24' W 119°60'516.1
2018-Feb-21 19:29N 34°24' W 120°06'912.1
2018-Feb-21 18:43N 34°21' W 120°17'1 6.3
2018-Feb-21 18:30N 34°21' W 120°15'610.7
2018-Feb-21 17:55N 34°23' W 120°08'1 1.6
2018-Feb-21 17:30N 34°23' W 120°07'0 0.4
2018-Feb-21 16:58N 34°23' W 120°07'0 0.0
2018-Feb-21 16:28N 34°23' W 120°07'0 1.0
2018-Feb-21 15:59N 34°23' W 120°06'916.4
2018-Feb-21 15:27N 34°25' W 119°56'1 0.1
2018-Feb-21 02:33N 34°26' W 119°55'0 0.5
2018-Feb-21 02:05N 34°26' W 119°55'0 4.3
2018-Feb-21 02:00N 34°25' W 119°55'713.7
2018-Feb-21 01:29N 34°23' W 120°04'5 8.8
2018-Feb-21 00:53N 34°23' W 120°10'611.9
2018-Feb-21 00:24N 34°21' W 120°17'6 8.5
2018-Feb-20 23:42N 34°22' W 120°10'1 4.0
2018-Feb-20 23:27N 34°23' W 120°09'1 2.2
2018-Feb-20 22:58N 34°22' W 120°10'0 0.0
2018-Feb-20 22:29N 34°22' W 120°10'0 0.1
2018-Feb-20 22:00N 34°22' W 120°10'0 0.0
2018-Feb-20 21:29N 34°23' W 120°10'2 3.8
2018-Feb-20 21:00N 34°23' W 120°08'2 3.2
2018-Feb-20 20:23N 34°23' W 120°10'613.0
2018-Feb-20 19:57N 34°21' W 120°17'610.6
2018-Feb-20 19:23N 34°22' W 120°10'0 0.0
2018-Feb-20 18:59N 34°22' W 120°10'0 0.0
2018-Feb-20 18:29N 34°22' W 120°10'6 9.7
2018-Feb-20 17:52N 34°21' W 120°17'3 8.0
2018-Feb-20 17:30N 34°22' W 120°13'3 5.6
2018-Feb-20 17:00N 34°23' W 120°10'2 4.7
2018-Feb-20 16:29N 34°23' W 120°07'10 7.4
2018-Feb-20 15:08N 34°26' W 119°55'0 0.0
2018-Feb-20 14:41N 34°26' W 119°55'312.7
2018-Feb-20 14:29N 34°24' W 119°57'813.7
2018-Feb-20 13:54N 34°23' W 120°07'0 0.0
2018-Feb-20 13:29N 34°23' W 120°07'0 0.0
2018-Feb-20 12:59N 34°23' W 120°07'0 0.0
2018-Feb-20 12:28N 34°23' W 120°07'0 0.0
2018-Feb-20 11:49N 34°23' W 120°07'0 0.0
2018-Feb-20 11:28N 34°23' W 120°07'0 0.1
2018-Feb-20 10:58N 34°23' W 120°07'0 0.0
2018-Feb-20 10:25N 34°23' W 120°07'0 0.0
2018-Feb-20 09:58N 34°23' W 120°07'0 0.1
2018-Feb-20 09:29N 34°23' W 120°07'0 0.0
2018-Feb-20 08:59N 34°23' W 120°07'0 0.0
2018-Feb-20 08:29N 34°23' W 120°07'0 0.0
2018-Feb-20 08:00N 34°23' W 120°07'0 0.0
2018-Feb-20 07:30N 34°23' W 120°07'0 0.0
2018-Feb-20 06:59N 34°23' W 120°07'0 0.0
2018-Feb-20 06:29N 34°23' W 120°07'0 0.0
2018-Feb-20 05:56N 34°23' W 120°07'0 0.0
2018-Feb-20 05:30N 34°23' W 120°07'0 0.0
2018-Feb-20 05:00N 34°23' W 120°07'0 0.0
2018-Feb-20 04:30N 34°23' W 120°07'0 0.1
2018-Feb-20 04:00N 34°23' W 120°07'0 0.0
2018-Feb-20 03:28N 34°23' W 120°07'0 0.0
2018-Feb-20 03:00N 34°23' W 120°07'0 0.0
2018-Feb-20 02:30N 34°23' W 120°07'0 0.0
2018-Feb-20 02:00N 34°23' W 120°07'0 0.0
2018-Feb-20 01:29N 34°23' W 120°07'0 0.0
2018-Feb-20 01:00N 34°23' W 120°07'0 0.0
2018-Feb-20 00:30N 34°23' W 120°07'0 0.0
2018-Feb-20 00:00N 34°23' W 120°07'0 0.4
2018-Feb-19 23:21N 34°23' W 120°07'0 0.0
2018-Feb-19 22:58N 34°23' W 120°07'1411.3
2018-Feb-19 21:44N 34°18' W 119°52'411.4
2018-Feb-19 21:24N 34°16' W 119°48'1411.2
2018-Feb-19 20:07N 34°13' W 119°31'311.0
2018-Feb-19 19:49N 34°12' W 119°27'411.1
2018-Feb-19 19:27N 34°11' W 119°22'510.6
2018-Feb-19 19:00N 34°09' W 119°17'4 6.2
2018-Feb-19 18:23N 34°09' W 119°12'0 0.0
2018-Feb-19 17:59N 34°09' W 119°12'0 0.0
2018-Feb-19 17:29N 34°09' W 119°12'0 0.0
2018-Feb-19 16:59N 34°09' W 119°12'0 0.0
2018-Feb-19 16:14N 34°09' W 119°12'0 0.0
2018-Feb-19 15:59N 34°09' W 119°12'0 0.0
2018-Feb-19 15:29N 34°09' W 119°12'0 0.0
2018-Feb-19 14:59N 34°09' W 119°12'0 0.0
2018-Feb-19 14:29N 34°09' W 119°12'0 0.0
2018-Feb-19 13:35N 34°09' W 119°12'0 0.0
2018-Feb-19 13:29N 34°09' W 119°12'0 0.0
2018-Feb-19 12:59N 34°09' W 119°12'0 0.0
2018-Feb-19 12:29N 34°09' W 119°12'0 0.0
2018-Feb-19 11:51N 34°09' W 119°12'0 0.0
2018-Feb-19 11:27N 34°09' W 119°12'0 0.0
2018-Feb-19 11:00N 34°09' W 119°12'0 0.0
2018-Feb-19 10:30N 34°09' W 119°12'0 0.0
2018-Feb-19 09:57N 34°09' W 119°12'0 0.0
2018-Feb-19 09:30N 34°09' W 119°12'0 0.0
2018-Feb-19 09:00N 34°09' W 119°12'0 0.0
2018-Feb-19 08:24N 34°09' W 119°12'0 0.0
2018-Feb-19 07:57N 34°09' W 119°12'0 0.0
2018-Feb-19 07:30N 34°09' W 119°12'0 0.0
2018-Feb-19 06:33N 34°09' W 119°12'0 0.1
2018-Feb-19 06:27N 34°09' W 119°12'0 0.0
2018-Feb-19 06:00N 34°09' W 119°12'0 0.0
2018-Feb-19 05:29N 34°09' W 119°12'0 0.0
2018-Feb-19 04:47N 34°09' W 119°12'0 0.0
2018-Feb-19 04:15N 34°09' W 119°12'0 0.0
2018-Feb-19 03:57N 34°09' W 119°12'0 0.0
2018-Feb-19 03:30N 34°09' W 119°12'0 0.0
2018-Feb-19 02:54N 34°09' W 119°12'0 0.0
2018-Feb-19 02:30N 34°09' W 119°12'0 0.0
2018-Feb-19 01:57N 34°09' W 119°12'0 0.0
2018-Feb-19 01:27N 34°09' W 119°12'0 0.0
2018-Feb-19 00:51N 34°09' W 119°12'0 0.0
2018-Feb-19 00:27N 34°09' W 119°12'0 0.0
2018-Feb-18 23:57N 34°09' W 119°12'0 0.0
2018-Feb-18 23:27N 34°09' W 119°12'0 0.0
2018-Feb-18 23:00N 34°09' W 119°12'0 0.0
2018-Feb-18 22:27N 34°09' W 119°12'0 0.0
2018-Feb-18 22:00N 34°09' W 119°12'0 0.0
2018-Feb-18 21:30N 34°09' W 119°12'1 1.2
2018-Feb-18 20:59N 34°09' W 119°13'714.2
2018-Feb-18 20:28N 34°11' W 119°21'714.5
2018-Feb-18 20:00N 34°13' W 119°29'814.5
2018-Feb-18 19:28N 34°14' W 119°38'1014.5
2018-Feb-18 18:47N 34°17' W 119°50'414.6
2018-Feb-18 18:30N 34°18' W 119°54'814.3
2018-Feb-18 17:58N 34°20' W 120°03'611.8
2018-Feb-18 17:27N 34°23' W 120°10'0 0.0
2018-Feb-18 17:00N 34°23' W 120°10'3 4.0
2018-Feb-18 16:23N 34°23' W 120°07'0 0.0
2018-Feb-18 15:59N 34°23' W 120°07'612.3
2018-Feb-18 15:30N 34°24' W 120°00'4 8.3
2018-Feb-18 14:59N 34°26' W 119°55'0 0.0
2018-Feb-18 11:04N 34°26' W 119°55'0 0.0
2018-Feb-18 10:58N 34°26' W 119°55'0 0.0
2018-Feb-18 10:28N 34°26' W 119°55'0 0.0
2018-Feb-18 09:52N 34°26' W 119°55'0 0.0
2018-Feb-18 09:28N 34°26' W 119°55'0 0.0
2018-Feb-18 06:46N 34°26' W 119°55'0 0.0
2018-Feb-18 06:19N 34°26' W 119°55'0 0.0
2018-Feb-18 05:52N 34°26' W 119°55'0 0.0
2018-Feb-18 05:22N 34°26' W 119°55'0 0.0
2018-Feb-18 02:19N 34°26' W 119°55'3 9.5
2018-Feb-18 01:57N 34°24' W 119°59'713.1
2018-Feb-18 01:26N 34°23' W 120°07'3 5.8
2018-Feb-18 01:00N 34°23' W 120°10'611.4
2018-Feb-18 00:30N 34°21' W 120°17'6 9.3
2018-Feb-17 23:52N 34°22' W 120°10'0 0.0
2018-Feb-17 23:16N 34°22' W 120°10'0 0.0
2018-Feb-17 22:40N 34°22' W 120°10'0 0.0
2018-Feb-17 22:28N 34°22' W 120°10'0 0.0
2018-Feb-17 21:49N 34°22' W 120°10'0 0.0
2018-Feb-17 21:19N 34°22' W 120°10'0 0.0
2018-Feb-17 20:40N 34°22' W 120°10'0 0.0
2018-Feb-17 20:10N 34°22' W 120°10'0 0.0
2018-Feb-17 19:31N 34°22' W 120°10'0 0.0
2018-Feb-17 19:25N 34°22' W 120°10'0 0.0
2018-Feb-17 18:37N 34°22' W 120°10'0 0.0
2018-Feb-17 18:19N 34°22' W 120°10'0 0.0
2018-Feb-17 17:43N 34°22' W 120°10'0 0.0
2018-Feb-17 17:22N 34°22' W 120°10'0 0.6
2018-Feb-17 16:58N 34°23' W 120°10'5 8.7
2018-Feb-17 16:26N 34°24' W 120°05'716.1
2018-Feb-17 16:00N 34°24' W 119°56'2 2.4
2018-Feb-17 15:21N 34°26' W 119°55'0 0.5
2018-Feb-17 14:54N 34°26' W 119°55'0 0.2
2018-Feb-17 13:43N 34°26' W 119°55'0 0.0
2018-Feb-17 10:40N 34°26' W 119°55'0 0.0
2018-Feb-17 07:46N 34°26' W 119°55'0 0.0
2018-Feb-17 07:25N 34°26' W 119°55'0 0.0
2018-Feb-17 06:55N 34°26' W 119°55'0 0.0
2018-Feb-16 23:43N 34°26' W 119°55'0 0.0
2018-Feb-16 23:13N 34°26' W 119°55'0 0.0
2018-Feb-16 22:58N 34°26' W 119°55'0 0.0
2018-Feb-16 22:28N 34°26' W 119°55'0 0.0
2018-Feb-16 17:37N 34°26' W 119°55'0 0.0
2018-Feb-16 17:25N 34°26' W 119°55'0 0.0
2018-Feb-16 14:43N 34°26' W 119°55'0 0.0
2018-Feb-16 12:22N 34°26' W 119°55'0 0.0
2018-Feb-16 11:19N 34°26' W 119°55'0 0.0
2018-Feb-16 09:55N 34°26' W 119°55'0 0.0
2018-Feb-16 09:01N 34°26' W 119°55'0 0.0
2018-Feb-16 08:34N 34°26' W 119°55'0 0.0
2018-Feb-16 08:22N 34°26' W 119°55'0 0.0
2018-Feb-16 06:52N 34°26' W 119°55'0 0.0
2018-Feb-16 03:46N 34°26' W 119°55'0 0.0
2018-Feb-16 03:10N 34°26' W 119°55'0 0.0
2018-Feb-16 02:49N 34°26' W 119°55'0 0.5
2018-Feb-16 02:22N 34°26' W 119°55'510.8
2018-Feb-16 01:57N 34°24' W 120°00'6 9.7
2018-Feb-16 01:22N 34°23' W 120°07'510.0
2018-Feb-16 00:50N 34°22' W 120°13'3 7.4
2018-Feb-16 00:26N 34°21' W 120°17'612.8
2018-Feb-15 23:59N 34°22' W 120°10'0 0.0
2018-Feb-15 23:11N 34°22' W 120°10'0 0.0
2018-Feb-15 22:53N 34°22' W 120°10'0 0.0
2018-Feb-15 22:25N 34°22' W 120°10'0 0.0
2018-Feb-15 21:55N 34°22' W 120°10'0 0.0
2018-Feb-15 21:13N 34°22' W 120°10'0 0.0
2018-Feb-15 20:52N 34°22' W 120°10'0 0.0
2018-Feb-15 20:22N 34°22' W 120°10'0 0.0
2018-Feb-15 19:49N 34°22' W 120°10'0 0.0
2018-Feb-15 19:16N 34°22' W 120°10'0 0.0
2018-Feb-15 18:52N 34°22' W 120°10'0 0.0
2018-Feb-15 18:28N 34°22' W 120°10'0 0.0
2018-Feb-15 17:58N 34°22' W 120°10'0 0.5
2018-Feb-15 17:30N 34°23' W 120°10'814.3
2018-Feb-15 16:56N 34°24' W 119°60'4 7.1
2018-Feb-15 16:21N 34°26' W 119°55'0 0.1
2018-Feb-15 12:26N 34°26' W 119°55'0 0.0
2018-Feb-15 10:02N 34°26' W 119°55'0 0.0
2018-Feb-15 09:47N 34°26' W 119°55'0 0.0
2018-Feb-15 00:40N 34°26' W 119°55'  

Dump ship's entire track history